Time;durP1;ratioP1;P1;durP2;ratioP2;P2;SDS_P1;SDS_P2;PMS_P1;PMS_P2;Temp;Humidity;BMP_temperature;BMP_pressure;BME280_temperature;BME280_humidity;BME280_pressure;Samples;Min_cycle;Max_cycle;Signal;HPM_P1;HPM_P2
2023/10/05 20:14:23;;;;;;;;;;;;;;;;;;7429441;19;20027;-90
2023/10/05 20:16:50;;;;;;;;;;;;;;;;;;7427610;19;20422;-90
2023/10/05 20:19:18;;;;;;;1.48;0.43;;;;;;;;;;7427125;19;20068;-90
2023/10/05 20:21:45;;;;;;;0.80;0.70;;;;;;;;;;7429703;19;20372;-90
2023/10/05 20:24:13;;;;;;;1.00;1.00;;;;;;;;;;7429714;19;20356;-91
2023/10/05 20:26:40;;;;;;;0.50;0.50;;;;;;;;;;7427326;19;20677;-91
2023/10/05 20:29:07;;;;;;;0.63;0.63;;;;;;;;;;7427564;19;20344;-91
2023/10/05 20:31:34;;;;;;;0.70;0.70;;;;;;;;;;7427387;19;20764;-90
2023/10/05 20:34:01;;;;;;;0.60;0.60;;;;;;;;;;7426488;19;20372;-90
2023/10/05 20:36:28;;;;;;;0.93;0.82;;;;;;;;;;7422949;19;20701;-91
2023/10/05 20:38:54;;;;;;;0.90;0.90;;;;;;;;;;7425649;19;20374;-90
2023/10/05 20:41:22;;;;;;;1.27;0.67;;;;;;;;;;7426272;19;20368;-90
2023/10/05 20:43:49;;;;;;;0.63;0.63;;;;;;;;;;7424662;19;20352;-92
2023/10/05 20:46:16;;;;;;;0.80;0.80;;;;;;;;;;7426627;19;20356;-91
2023/10/05 20:48:43;;;;;;;0.70;0.70;;;;;;;;;;7429030;19;20363;-91
2023/10/05 20:51:10;;;;;;;0.82;0.82;;;;;;;;;;7432881;19;20355;-89
2023/10/05 20:53:38;;;;;;;0.60;0.60;;;;;;;;;;7428025;19;20353;-91
2023/10/05 20:56:09;;;;;;;0.55;0.55;;;;;;;;;;7434480;19;20368;-90
2023/10/05 20:58:36;;;;;;;0.53;0.53;;;;;;;;;;7434374;19;20355;-89
2023/10/05 21:01:04;;;;;;;0.75;0.75;;;;;;;;;;7413975;19;20349;-89
2023/10/05 21:03:33;;;;;;;0.88;0.88;;;;;;;;;;7404796;19;20359;-89
2023/10/05 21:06:04;;;;;;;0.75;0.75;;;;;;;;;;7406525;19;20376;-91
2023/10/05 21:08:33;;;;;;;1.40;1.27;;;;;;;;;;7395887;19;20774;-92
2023/10/05 21:11:02;;;;;;;2.90;1.45;;;;;;;;;;7397658;19;20508;-93
2023/10/05 21:13:30;;;;;;;0.60;0.60;;;;;;;;;;7396585;19;20388;-93
2023/10/05 21:15:57;;;;;;;0.40;0.40;;;;;;;;;;7397402;19;20348;-93
2023/10/05 21:18:23;;;;;;;0.60;0.60;;;;;;;;;;7394756;19;20424;-93
2023/10/05 21:20:50;;;;;;;0.57;0.57;;;;;;;;;;7400062;19;20410;-92
2023/10/05 21:23:18;;;;;;;1.20;1.02;;;;;;;;;;7402916;19;20709;-91
2023/10/05 21:25:47;;;;;;;0.40;0.40;;;;;;;;;;7401376;19;20683;-92
2023/10/05 21:28:15;;;;;;;0.55;0.55;;;;;;;;;;7396762;19;20907;-92
2023/10/05 21:30:45;;;;;;;1.35;0.85;;;;;;;;;;7400681;19;20364;-88
2023/10/05 21:33:17;;;;;;;0.45;0.45;;;;;;;;;;7403423;19;20345;-89
2023/10/05 21:35:45;;;;;;;0.90;0.90;;;;;;;;;;7417695;19;20348;-89
2023/10/05 21:38:11;;;;;;;1.77;1.20;;;;;;;;;;7426724;19;20356;-89
2023/10/05 21:40:39;;;;;;;0.57;0.57;;;;;;;;;;7398256;19;20341;-90
2023/10/05 21:43:06;;;;;;;1.37;0.80;;;;;;;;;;7397966;19;20350;-89
2023/10/05 21:45:32;;;;;;;0.70;0.70;;;;;;;;;;7396981;19;20427;-89
2023/10/05 21:47:59;;;;;;;0.80;0.80;;;;;;;;;;7396957;19;20695;-89
2023/10/05 21:50:27;;;;;;;1.60;1.48;;;;;;;;;;7398405;19;20368;-89
2023/10/05 21:52:54;;;;;;;0.50;0.50;;;;;;;;;;7401097;19;20436;-89
2023/10/05 21:55:21;;;;;;;0.93;0.85;;;;;;;;;;7401470;19;20443;-91
2023/10/05 21:57:49;;;;;;;0.47;0.47;;;;;;;;;;7401891;19;20424;-89
2023/10/05 22:00:36;;;;;;;1.33;0.80;;;;;;;;;;7399513;19;20360;-90
2023/10/05 22:03:07;;;;;;;0.52;0.52;;;;;;;;;;7401196;19;20352;-90
2023/10/05 22:05:36;;;;;;;1.50;0.50;;;;;;;;;;7422376;19;20352;-90
2023/10/05 22:08:07;;;;;;;0.70;0.70;;;;;;;;;;7417836;19;20868;-90
2023/10/05 22:10:35;;;;;;;0.30;0.30;;;;;;;;;;7408948;19;20345;-89
2023/10/05 22:13:04;;;;;;;0.65;0.60;;;;;;;;;;7397112;19;20360;-90
2023/10/05 22:15:31;;;;;;;0.73;0.73;;;;;;;;;;7395644;19;20344;-88
2023/10/05 22:17:59;;;;;;;2.10;0.70;;;;;;;;;;7399280;19;20356;-88
2023/10/05 22:20:26;;;;;;;1.10;1.00;;;;;;;;;;7400679;19;20407;-88
2023/10/05 22:22:54;;;;;;;1.27;1.17;;;;;;;;;;7400253;19;20357;-89
2023/10/05 22:25:22;;;;;;;0.73;0.65;;;;;;;;;;7401092;19;20860;-89
2023/10/05 22:27:52;;;;;;;0.75;0.75;;;;;;;;;;7400974;19;20364;-90
2023/10/05 22:30:19;;;;;;;1.77;0.65;;;;;;;;;;7401448;19;20393;-89
2023/10/05 22:32:46;;;;;;;1.02;0.93;;;;;;;;;;7404326;19;20366;-91
2023/10/05 22:35:13;;;;;;;0.60;0.60;;;;;;;;;;7402428;19;20333;-89
2023/10/05 22:37:41;;;;;;;0.95;0.93;;;;;;;;;;7400996;19;20348;-89
2023/10/05 22:40:12;;;;;;;0.90;0.90;;;;;;;;;;7401436;19;20348;-90
2023/10/05 22:42:42;;;;;;;0.68;0.68;;;;;;;;;;7402732;19;20397;-89
2023/10/05 22:45:10;;;;;;;1.00;0.90;;;;;;;;;;7400325;19;20336;-88
2023/10/05 22:47:37;;;;;;;1.90;0.90;;;;;;;;;;7394417;19;20370;-89
2023/10/05 22:50:04;;;;;;;1.17;1.05;;;;;;;;;;7392298;19;20395;-89
2023/10/05 22:52:31;;;;;;;0.43;0.43;;;;;;;;;;7396002;19;20365;-89
2023/10/05 22:54:57;;;;;;;1.48;1.23;;;;;;;;;;7394637;19;20361;-89
2023/10/05 22:57:25;;;;;;;0.90;0.90;;;;;;;;;;7390545;19;20365;-88
2023/10/05 22:59:52;;;;;;;0.60;0.60;;;;;;;;;;7391724;19;20353;-89
2023/10/05 23:02:19;;;;;;;1.30;1.00;;;;;;;;;;7392298;19;20355;-89
2023/10/05 23:04:46;;;;;;;2.78;0.98;;;;;;;;;;7399005;19;20364;-89
2023/10/05 23:07:14;;;;;;;0.70;0.70;;;;;;;;;;7394563;19;20349;-89
2023/10/05 23:09:44;;;;;;;1.40;0.80;;;;;;;;;;7393568;19;20754;-89
2023/10/05 23:12:11;;;;;;;0.70;0.70;;;;;;;;;;7403960;19;20340;-89
2023/10/05 23:14:38;;;;;;;0.70;0.70;;;;;;;;;;7407332;19;20353;-89
2023/10/05 23:17:08;;;;;;;0.50;0.50;;;;;;;;;;7401950;19;20368;-90
2023/10/05 23:19:36;;;;;;;0.60;0.60;;;;;;;;;;7398404;19;20810;-90
2023/10/05 23:22:06;;;;;;;0.75;0.63;;;;;;;;;;7394762;19;20344;-90
2023/10/05 23:24:35;;;;;;;1.00;1.00;;;;;;;;;;7394720;19;20355;-89
2023/10/05 23:27:04;;;;;;;0.80;0.80;;;;;;;;;;7390519;19;20376;-89
2023/10/05 23:29:31;;;;;;;0.50;0.50;;;;;;;;;;7394638;19;20357;-90
2023/10/05 23:31:59;;;;;;;0.75;0.75;;;;;;;;;;7394464;19;20345;-90
2023/10/05 23:34:28;;;;;;;0.50;0.50;;;;;;;;;;7397580;19;20333;-89
2023/10/05 23:36:58;;;;;;;0.85;0.85;;;;;;;;;;7396000;19;20354;-90
2023/10/05 23:39:25;;;;;;;0.73;0.73;;;;;;;;;;7393175;19;20365;-90
2023/10/05 23:41:56;;;;;;;0.50;0.50;;;;;;;;;;7396552;19;20411;-89
2023/10/05 23:44:24;;;;;;;0.90;0.90;;;;;;;;;;7394421;19;21038;-90
2023/10/05 23:47:00;;;;;;;0.80;0.80;;;;;;;;;;7396292;19;20337;-90
2023/10/05 23:49:47;;;;;;;0.70;0.70;;;;;;;;;;7392588;19;20361;-90
2023/10/05 23:52:14;;;;;;;0.95;0.95;;;;;;;;;;7390687;19;20352;-90
2023/10/05 23:54:42;;;;;;;0.80;0.80;;;;;;;;;;7392437;19;20332;-90
2023/10/05 23:57:20;;;;;;;0.30;0.30;;;;;;;;;;7392024;19;20337;-90
2023/10/05 23:59:48;;;;;;;0.80;0.80;;;;;;;;;;7392842;19;20385;-90
